Time,TemperatureF,DewpointF,PressureIn,WindDirection,WindDirectionDegrees,WindSpeedMPH,WindSpeedGustMPH,Humidity,HourlyPrecipIn,Conditions,Clouds,dailyrainin,SoftwareType,DateUTC
2013-11-20 00:01:00,50.2,30.7,28.60,South,180,26.5,26.5,47,0.00,CLR,,0.00,WeatherDisplay:10.37,2013-11-20 06:01:00,
2013-11-20 00:06:00,50.2,30.7,28.61,South,180,26.5,26.5,47,0.00,CLR,,0.00,WeatherDisplay:10.37,2013-11-20 06:06:00,
2013-11-20 00:11:00,50.2,30.7,28.60,South,180,25.3,25.3,47,0.00,CLR,,0.00,WeatherDisplay:10.37,2013-11-20 06:11:00,
2013-11-20 00:16:00,50.2,30.7,28.60,SSW,202,27.6,27.6,47,0.00,CLR,,0.00,WeatherDisplay:10.37,2013-11-20 06:16:00,
2013-11-20 00:21:00,50.2,30.7,28.60,South,180,27.6,27.6,47,0.00,CLR,,0.00,WeatherDisplay:10.37,2013-11-20 06:21:00,
2013-11-20 00:26:00,50.4,30.9,28.60,South,180,27.6,27.6,47,0.00,CLR,,0.00,WeatherDisplay:10.37,2013-11-20 06:26:00,
2013-11-20 00:31:00,50.2,30.7,28.60,South,180,24.2,24.2,47,0.00,CLR,,0.00,WeatherDisplay:10.37,2013-11-20 06:31:00,
2013-11-20 00:36:00,50.4,30.3,28.60,South,180,28.8,28.8,46,0.00,CLR,,0.00,WeatherDisplay:10.37,2013-11-20 06:36:00,
2013-11-20 00:41:00,50.2,30.7,28.60,South,180,26.5,26.5,47,0.00,CLR,,0.00,WeatherDisplay:10.37,2013-11-20 06:41:00,
2013-11-20 00:46:00,50.4,30.3,28.60,South,180,26.5,26.5,46,0.00,CLR,,0.00,WeatherDisplay:10.37,2013-11-20 06:46:00,
2013-11-20 00:51:00,50.2,30.7,28.60,SW,225,23.0,23.0,47,0.00,CLR,,0.00,WeatherDisplay:10.37,2013-11-20 06:51:00,
2013-11-20 00:56:00,50.2,30.2,28.60,South,180,26.5,26.5,46,0.00,CLR,,0.00,WeatherDisplay:10.37,2013-11-20 06:56:00,
2013-11-20 01:01:00,50.2,30.7,28.60,South,180,23.0,23.0,47,0.00,CLR,,0.00,WeatherDisplay:10.37,2013-11-20 07:01:00,
2013-11-20 01:06:00,50.2,30.7,28.60,South,180,23.0,23.0,47,0.00,CLR,,0.00,WeatherDisplay:10.37,2013-11-20 07:06:00,
2013-11-20 01:11:00,50.2,30.7,28.60,South,180,24.2,24.2,47,0.00,CLR,,0.00,WeatherDisplay:10.37,2013-11-20 07:11:00,
2013-11-20 01:16:00,50.2,30.7,28.60,South,180,23.0,23.0,47,0.00,CLR,,0.00,WeatherDisplay:10.37,2013-11-20 07:16:00,
2013-11-20 01:21:00,50.0,30.5,28.59,SSW,202,23.0,23.0,47,0.00,CLR,,0.00,WeatherDisplay:10.37,2013-11-20 07:21:00,
2013-11-20 01:26:00,50.0,30.5,28.59,South,180,26.5,26.5,47,0.00,CLR,,0.00,WeatherDisplay:10.37,2013-11-20 07:26:00,
2013-11-20 01:31:00,50.0,30.5,28.60,South,180,27.6,27.6,47,0.00,CLR,,0.00,WeatherDisplay:10.37,2013-11-20 07:31:00,
2013-11-20 01:36:00,50.0,30.0,28.59,South,180,26.5,26.5,46,0.00,CLR,,0.00,WeatherDisplay:10.37,2013-11-20 07:36:00,
2013-11-20 01:41:00,50.0,30.0,28.59,South,180,26.5,26.5,46,0.00,CLR,,0.00,WeatherDisplay:10.37,2013-11-20 07:41:00,
2013-11-20 01:46:00,50.0,30.5,28.60,South,180,24.2,24.2,47,0.00,CLR,,0.00,WeatherDisplay:10.37,2013-11-20 07:46:00,
2013-11-20 01:51:00,49.8,30.4,28.59,South,180,23.0,23.0,47,0.00,CLR,,0.00,WeatherDisplay:10.37,2013-11-20 07:51:00,
2013-11-20 01:56:00,49.6,30.2,28.59,South,180,23.0,23.0,47,0.00,CLR,,0.00,WeatherDisplay:10.37,2013-11-20 07:56:00,
2013-11-20 02:01:00,49.6,30.2,28.59,South,180,21.9,21.9,47,0.00,CLR,,0.00,WeatherDisplay:10.37,2013-11-20 08:01:00,
2013-11-20 02:06:00,49.5,30.6,28.59,South,180,21.9,21.9,48,0.00,CLR,,0.00,WeatherDisplay:10.37,2013-11-20 08:06:00,
2013-11-20 02:11:00,49.5,30.6,28.60,South,180,20.7,20.7,48,0.00,CLR,,0.00,WeatherDisplay:10.37,2013-11-20 08:11:00,
2013-11-20 02:17:00,49.3,30.9,28.59,South,180,20.7,20.7,49,0.00,CLR,,0.00,WeatherDisplay:10.37,2013-11-20 08:17:00,
2013-11-20 02:22:00,49.3,30.9,28.59,South,180,23.0,23.0,49,0.00,CLR,,0.00,WeatherDisplay:10.37,2013-11-20 08:22:00,
2013-11-20 02:27:00,49.3,30.9,28.59,South,180,23.0,23.0,49,0.00,CLR,,0.00,WeatherDisplay:10.37,2013-11-20 08:27:00,
2013-11-20 02:32:00,49.1,30.7,28.60,South,180,20.7,20.7,49,0.00,CLR,,0.00,WeatherDisplay:10.37,2013-11-20 08:32:00,
2013-11-20 02:37:00,49.1,30.7,28.59,South,180,21.9,21.9,49,0.00,CLR,,0.00,WeatherDisplay:10.37,2013-11-20 08:37:00,
2013-11-20 02:42:00,49.1,30.7,28.60,South,180,23.0,23.0,49,0.00,CLR,,0.00,WeatherDisplay:10.37,2013-11-20 08:42:00,
2013-11-20 02:47:00,48.9,30.6,28.60,South,180,21.9,21.9,49,0.00,CLR,,0.00,WeatherDisplay:10.37,2013-11-20 08:47:00,
2013-11-20 02:52:00,48.7,30.9,28.59,South,180,21.9,21.9,50,0.00,CLR,,0.00,WeatherDisplay:10.37,2013-11-20 08:52:00,
2013-11-20 02:57:00,48.4,31.1,28.59,South,180,17.3,17.3,51,0.00,CLR,,0.00,WeatherDisplay:10.37,2013-11-20 08:57:00,
2013-11-20 03:02:00,48.4,31.1,28.60,South,180,23.0,23.0,51,0.00,CLR,,0.00,WeatherDisplay:10.37,2013-11-20 09:02:00,
2013-11-20 03:07:00,48.2,30.9,28.59,South,180,23.0,23.0,51,0.00,CLR,,0.00,WeatherDisplay:10.37,2013-11-20 09:07:00,
2013-11-20 03:12:00,48.2,30.9,28.59,South,180,21.9,21.9,51,0.00,CLR,,0.00,WeatherDisplay:10.37,2013-11-20 09:12:00,
2013-11-20 03:17:00,47.8,31.0,28.59,South,180,19.6,19.6,52,0.00,CLR,,0.00,WeatherDisplay:10.37,2013-11-20 09:17:00,
2013-11-20 03:22:00,47.8,31.0,28.59,South,180,19.6,19.6,52,0.00,CLR,,0.00,WeatherDisplay:10.37,2013-11-20 09:22:00,
2013-11-20 03:27:00,47.5,31.2,28.59,South,180,17.3,17.3,53,0.00,CLR,,0.00,WeatherDisplay:10.37,2013-11-20 09:27:00,
2013-11-20 03:32:00,47.3,31.0,28.59,SE,135,19.6,19.6,53,0.00,CLR,,0.00,WeatherDisplay:10.37,2013-11-20 09:32:00,
2013-11-20 03:37:00,47.3,31.0,28.59,South,180,17.3,17.3,53,0.00,CLR,,0.00,WeatherDisplay:10.37,2013-11-20 09:37:00,
2013-11-20 03:42:00,46.9,31.1,28.59,South,180,16.1,16.1,54,0.00,CLR,,0.00,WeatherDisplay:10.37,2013-11-20 09:42:00,
2013-11-20 03:47:00,46.8,31.0,28.59,South,180,12.7,12.7,54,0.00,CLR,,0.00,WeatherDisplay:10.37,2013-11-20 09:47:00,
2013-11-20 03:52:00,46.4,31.1,28.59,South,180,10.4,10.4,55,0.00,CLR,,0.00,WeatherDisplay:10.37,2013-11-20 09:52:00,
2013-11-20 03:57:00,46.2,30.9,28.59,South,180,15.0,15.0,55,0.00,CLR,,0.00,WeatherDisplay:10.37,2013-11-20 09:57:00,
2013-11-20 04:02:00,46.0,30.8,28.59,SE,135,10.4,10.4,55,0.00,CLR,,0.00,WeatherDisplay:10.37,2013-11-20 10:02:00,
2013-11-20 04:07:00,46.0,30.8,28.59,SE,135,10.4,10.4,55,0.00,CLR,,0.00,WeatherDisplay:10.37,2013-11-20 10:07:00,
2013-11-20 04:12:00,44.8,30.9,28.59,South,180,10.4,10.4,58,0.00,CLR,,0.00,WeatherDisplay:10.37,2013-11-20 10:12:00,
2013-11-20 04:17:00,44.4,30.6,28.59,South,180,9.2,9.2,58,0.00,CLR,,0.00,WeatherDisplay:10.37,2013-11-20 10:17:00,
2013-11-20 04:22:00,44.1,30.6,28.59,SSE,158,8.1,8.1,59,0.00,CLR,,0.00,WeatherDisplay:10.37,2013-11-20 10:22:00,
2013-11-20 04:27:00,43.5,30.5,28.59,South,180,8.1,8.1,60,0.00,CLR,,0.00,WeatherDisplay:10.37,2013-11-20 10:27:00,
2013-11-20 04:32:00,43.2,30.6,28.58,SE,135,8.1,8.1,61,0.00,CLR,,0.00,WeatherDisplay:10.37,2013-11-20 10:32:00,
2013-11-20 04:37:00,43.0,30.4,28.59,SE,135,5.8,5.8,61,0.00,CLR,,0.00,WeatherDisplay:10.37,2013-11-20 10:37:00,
2013-11-20 04:42:00,43.0,30.4,28.58,SSE,158,9.2,9.2,61,0.00,CLR,,0.00,WeatherDisplay:10.37,2013-11-20 10:42:00,
2013-11-20 04:47:00,43.3,30.8,28.58,SE,135,10.4,10.4,61,0.00,CLR,,0.00,WeatherDisplay:10.37,2013-11-20 10:47:00,
2013-11-20 04:52:00,43.3,30.4,28.58,SE,135,10.4,10.4,60,0.00,CLR,,0.00,WeatherDisplay:10.37,2013-11-20 10:52:00,
2013-11-20 04:57:00,43.5,30.5,28.58,SE,135,10.4,10.4,60,0.00,CLR,,0.00,WeatherDisplay:10.37,2013-11-20 10:57:00,
2013-11-20 05:02:00,43.7,30.7,28.58,SE,135,12.7,12.7,60,0.00,CLR,,0.00,WeatherDisplay:10.37,2013-11-20 11:02:00,
2013-11-20 05:07:00,43.7,30.7,28.58,SE,135,12.7,12.7,60,0.00,CLR,,0.00,WeatherDisplay:10.37,2013-11-20 11:07:00,
2013-11-20 05:12:00,43.3,30.8,28.58,SE,135,10.4,10.4,61,0.00,CLR,,0.00,WeatherDisplay:10.37,2013-11-20 11:12:00,
2013-11-20 05:17:00,43.2,31.0,28.58,SE,135,10.4,10.4,62,0.00,CLR,,0.00,WeatherDisplay:10.37,2013-11-20 11:17:00,
2013-11-20 05:22:00,43.2,31.0,28.58,South,180,10.4,10.4,62,0.00,CLR,,0.00,WeatherDisplay:10.37,2013-11-20 11:22:00,
2013-11-20 05:27:00,43.5,31.0,28.58,South,180,12.7,12.7,61,0.00,CLR,,0.00,WeatherDisplay:10.37,2013-11-20 11:27:00,
2013-11-20 05:32:00,43.5,31.0,28.58,South,180,12.7,12.7,61,0.00,CLR,,0.00,WeatherDisplay:10.37,2013-11-20 11:32:00,
2013-11-20 05:37:00,43.7,31.1,28.58,South,180,13.8,13.8,61,0.00,CLR,,0.00,WeatherDisplay:10.37,2013-11-20 11:37:00,
2013-11-20 05:42:00,44.1,31.5,28.58,SE,135,13.8,13.8,61,0.00,CLR,,0.00,WeatherDisplay:10.37,2013-11-20 11:42:00,
2013-11-20 05:47:00,44.2,31.2,28.58,South,180,11.5,11.5,60,0.00,CLR,,0.00,WeatherDisplay:10.37,2013-11-20 11:47:00,
2013-11-20 05:52:00,44.2,31.2,28.57,SSE,158,12.7,12.7,60,0.00,CLR,,0.00,WeatherDisplay:10.37,2013-11-20 11:52:00,
2013-11-20 05:57:00,44.2,31.2,28.58,South,180,12.7,12.7,60,0.00,CLR,,0.00,WeatherDisplay:10.37,2013-11-20 11:57:00,
2013-11-20 06:02:00,44.2,31.2,28.57,South,180,10.4,10.4,60,0.00,CLR,,0.00,WeatherDisplay:10.37,2013-11-20 12:02:00,
2013-11-20 06:07:00,44.2,31.2,28.57,South,180,10.4,10.4,60,0.00,CLR,,0.00,WeatherDisplay:10.37,2013-11-20 12:07:00,
2013-11-20 06:12:00,44.2,31.2,28.58,South,180,10.4,10.4,60,0.00,CLR,,0.00,WeatherDisplay:10.37,2013-11-20 12:12:00,
2013-11-20 06:17:00,44.2,31.2,28.57,South,180,11.5,11.5,60,0.00,CLR,,0.00,WeatherDisplay:10.37,2013-11-20 12:17:00,
2013-11-20 06:22:00,44.2,31.2,28.58,South,180,10.4,10.4,60,0.00,CLR,,0.00,WeatherDisplay:10.37,2013-11-20 12:22:00,
2013-11-20 06:27:00,44.2,31.2,28.58,SE,135,9.2,9.2,60,0.00,CLR,,0.00,WeatherDisplay:10.37,2013-11-20 12:27:00,
2013-11-20 06:32:00,44.1,31.5,28.58,South,180,11.5,11.5,61,0.00,CLR,,0.00,WeatherDisplay:10.37,2013-11-20 12:32:00,
2013-11-20 06:37:00,44.1,31.5,28.58,SSE,158,12.7,12.7,61,0.00,CLR,,0.00,WeatherDisplay:10.37,2013-11-20 12:37:00,
2013-11-20 06:42:00,44.1,31.5,28.58,South,180,11.5,11.5,61,0.00,CLR,,0.00,WeatherDisplay:10.37,2013-11-20 12:42:00,
2013-11-20 06:47:00,44.1,31.5,28.58,SSE,158,12.7,12.7,61,0.00,CLR,,0.00,WeatherDisplay:10.37,2013-11-20 12:47:00,
2013-11-20 06:52:00,43.9,31.3,28.58,SE,135,8.1,8.1,61,0.00,CLR,,0.00,WeatherDisplay:10.37,2013-11-20 12:52:00,
2013-11-20 06:57:00,43.0,31.2,28.58,SSE,158,10.4,10.4,63,0.00,CLR,,0.00,WeatherDisplay:10.37,2013-11-20 12:57:00,
2013-11-20 07:02:00,42.8,31.5,28.58,SSE,158,5.8,5.8,64,0.00,CLR,,0.00,WeatherDisplay:10.37,2013-11-20 13:02:00,
2013-11-20 07:07:00,42.8,31.5,28.58,SSE,158,5.8,5.8,64,0.00,CLR,,0.00,WeatherDisplay:10.37,2013-11-20 13:07:00,
2013-11-20 07:12:00,41.9,31.4,28.59,South,180,9.2,9.2,66,0.00,CLR,,0.00,WeatherDisplay:10.37,2013-11-20 13:12:00,
2013-11-20 07:17:00,41.7,31.6,28.59,South,180,9.2,9.2,67,0.00,CLR,,0.00,WeatherDisplay:10.37,2013-11-20 13:17:00,
2013-11-20 07:22:00,41.7,31.6,28.59,SE,135,8.1,8.1,67,0.00,CLR,,0.00,WeatherDisplay:10.37,2013-11-20 13:22:00,
2013-11-20 07:27:00,41.5,31.4,28.59,SE,135,10.4,10.4,67,0.00,CLR,,0.00,WeatherDisplay:10.37,2013-11-20 13:27:00,
2013-11-20 07:32:00,41.7,31.6,28.59,South,180,12.7,12.7,67,0.00,CLR,,0.00,WeatherDisplay:10.37,2013-11-20 13:32:00,
2013-11-20 07:37:00,41.5,31.4,28.59,SE,135,10.4,10.4,67,0.00,CLR,,0.00,WeatherDisplay:10.37,2013-11-20 13:37:00,
2013-11-20 07:42:00,41.4,31.6,28.59,SE,135,8.1,8.1,68,0.00,CLR,,0.00,WeatherDisplay:10.37,2013-11-20 13:42:00,
2013-11-20 07:47:00,41.4,31.6,28.59,South,180,6.9,6.9,68,0.00,CLR,,0.00,WeatherDisplay:10.37,2013-11-20 13:47:00,
2013-11-20 07:52:00,41.4,31.6,28.59,SSE,158,9.2,9.2,68,0.00,CLR,,0.00,WeatherDisplay:10.37,2013-11-20 13:52:00,
2013-11-20 07:57:00,41.5,31.8,28.59,SSE,158,9.2,9.2,68,0.00,CLR,,0.00,WeatherDisplay:10.37,2013-11-20 13:57:00,
2013-11-20 08:02:00,41.7,31.9,28.60,South,180,10.4,10.4,68,0.00,CLR,,0.00,WeatherDisplay:10.37,2013-11-20 14:02:00,
2013-11-20 08:07:00,41.7,31.9,28.60,South,180,10.4,10.4,68,0.00,CLR,,0.00,WeatherDisplay:10.37,2013-11-20 14:07:00,
2013-11-20 08:12:00,42.1,32.3,28.60,SE,135,8.1,8.1,68,0.00,CLR,,0.00,WeatherDisplay:10.37,2013-11-20 14:12:00,
2013-11-20 08:17:00,42.3,32.4,28.60,South,180,11.5,11.5,68,0.00,CLR,,0.00,WeatherDisplay:10.37,2013-11-20 14:17:00,
2013-11-20 08:22:00,42.4,32.6,28.60,South,180,10.4,10.4,68,0.00,CLR,,0.00,WeatherDisplay:10.37,2013-11-20 14:22:00,
2013-11-20 08:27:00,42.6,32.8,28.60,SSE,158,8.1,8.1,68,0.00,CLR,,0.00,WeatherDisplay:10.37,2013-11-20 14:27:00,
2013-11-20 08:32:00,42.8,33.0,28.60,South,180,10.4,10.4,68,0.00,CLR,,0.00,WeatherDisplay:10.37,2013-11-20 14:32:00,
2013-11-20 08:37:00,43.0,33.1,28.60,South,180,10.4,10.4,68,0.00,CLR,,0.00,WeatherDisplay:10.37,2013-11-20 14:37:00,
2013-11-20 08:42:00,43.2,33.3,28.60,SE,135,10.4,10.4,68,0.00,CLR,,0.00,WeatherDisplay:10.37,2013-11-20 14:42:00,
2013-11-20 08:47:00,43.3,33.5,28.60,South,180,9.2,9.2,68,0.00,CLR,,0.00,WeatherDisplay:10.37,2013-11-20 14:47:00,
2013-11-20 08:52:00,43.7,33.8,28.60,South,180,12.7,12.7,68,0.00,CLR,,0.00,WeatherDisplay:10.37,2013-11-20 14:52:00,
2013-11-20 08:57:00,43.9,34.0,28.60,South,180,12.7,12.7,68,0.00,CLR,,0.00,WeatherDisplay:10.37,2013-11-20 14:57:00,
2013-11-20 09:02:00,43.9,34.0,28.60,SE,135,12.7,12.7,68,0.00,CLR,,0.00,WeatherDisplay:10.37,2013-11-20 15:02:00,
2013-11-20 09:07:00,44.2,34.0,28.60,South,180,13.8,13.8,67,0.00,CLR,,0.00,WeatherDisplay:10.37,2013-11-20 15:07:00,
2013-11-20 09:12:00,44.4,34.1,28.60,SSE,158,13.8,13.8,67,0.00,CLR,,0.00,WeatherDisplay:10.37,2013-11-20 15:12:00,
2013-11-20 09:17:00,44.6,34.3,28.60,South,180,13.8,13.8,67,0.00,CLR,,0.00,WeatherDisplay:10.37,2013-11-20 15:17:00,
2013-11-20 09:22:00,44.6,34.3,28.60,South,180,13.8,13.8,67,0.00,CLR,,0.00,WeatherDisplay:10.37,2013-11-20 15:22:00,
2013-11-20 09:27:00,45.0,34.7,28.60,South,180,12.7,12.7,67,0.00,CLR,,0.00,WeatherDisplay:10.37,2013-11-20 15:27:00,
2013-11-20 09:32:00,45.1,34.8,28.61,South,180,12.7,12.7,67,0.00,CLR,,0.00,WeatherDisplay:10.37,2013-11-20 15:32:00,
2013-11-20 09:37:00,45.1,34.5,28.61,South,180,12.7,12.7,66,0.00,CLR,,0.00,WeatherDisplay:10.37,2013-11-20 15:37:00,
2013-11-20 09:42:00,45.3,35.0,28.60,South,180,12.7,12.7,67,0.00,CLR,,0.00,WeatherDisplay:10.37,2013-11-20 15:42:00,
2013-11-20 09:47:00,45.5,34.8,28.60,South,180,12.7,12.7,66,0.00,CLR,,0.00,WeatherDisplay:10.37,2013-11-20 15:47:00,
2013-11-20 09:52:00,45.9,35.1,28.60,SSE,158,11.5,11.5,66,0.00,CLR,,0.00,WeatherDisplay:10.37,2013-11-20 15:52:00,
2013-11-20 09:57:00,46.6,35.4,28.61,South,180,15.0,15.0,65,0.00,CLR,,0.00,WeatherDisplay:10.37,2013-11-20 15:57:00,
2013-11-20 10:02:00,46.8,35.6,28.61,SE,135,13.8,13.8,65,0.00,CLR,,0.00,WeatherDisplay:10.37,2013-11-20 16:02:00,
2013-11-20 10:07:00,46.8,35.6,28.61,SE,135,11.5,11.5,65,0.00,CLR,,0.00,WeatherDisplay:10.37,2013-11-20 16:07:00,
2013-11-20 10:12:00,47.3,35.3,28.61,South,180,16.1,16.1,63,0.00,CLR,,0.00,WeatherDisplay:10.37,2013-11-20 16:12:00,
2013-11-20 10:17:00,47.7,35.7,28.61,South,180,15.0,15.0,63,0.00,CLR,,0.00,WeatherDisplay:10.37,2013-11-20 16:17:00,
2013-11-20 10:22:00,47.8,36.2,28.61,South,180,12.7,12.7,64,0.00,CLR,,0.00,WeatherDisplay:10.37,2013-11-20 16:22:00,
2013-11-20 10:27:00,48.0,36.0,28.61,SW,225,15.0,15.0,63,0.00,CLR,,0.00,WeatherDisplay:10.37,2013-11-20 16:27:00,
2013-11-20 10:32:00,48.2,35.8,28.61,South,180,19.6,19.6,62,0.00,CLR,,0.00,WeatherDisplay:10.37,2013-11-20 16:32:00,
2013-11-20 10:37:00,48.4,36.0,28.61,South,180,17.3,17.3,62,0.00,CLR,,0.00,WeatherDisplay:10.37,2013-11-20 16:37:00,
2013-11-20 10:42:00,48.6,35.7,28.61,South,180,20.7,20.7,61,0.00,CLR,,0.00,WeatherDisplay:10.37,2013-11-20 16:42:00,
2013-11-20 10:47:00,48.9,36.5,28.61,South,180,17.3,17.3,62,0.00,CLR,,0.00,WeatherDisplay:10.37,2013-11-20 16:47:00,
2013-11-20 10:52:00,49.1,36.2,28.61,South,180,18.4,18.4,61,0.00,CLR,,0.00,WeatherDisplay:10.37,2013-11-20 16:52:00,
2013-11-20 10:57:00,48.9,36.1,28.61,South,180,18.4,18.4,61,0.00,CLR,,0.00,WeatherDisplay:10.37,2013-11-20 16:57:00,
2013-11-20 11:02:00,49.1,36.6,28.61,South,180,15.0,15.0,62,0.00,CLR,,0.00,WeatherDisplay:10.37,2013-11-20 17:02:00,
2013-11-20 11:07:00,49.1,36.6,28.61,South,180,15.0,15.0,62,0.00,CLR,,0.00,WeatherDisplay:10.37,2013-11-20 17:07:00,
2013-11-20 11:12:00,49.8,36.9,28.61,South,180,17.3,17.3,61,0.00,CLR,,0.00,WeatherDisplay:10.37,2013-11-20 17:12:00,
2013-11-20 11:17:00,50.0,36.2,28.61,South,180,19.6,19.6,59,0.00,CLR,,0.00,WeatherDisplay:10.37,2013-11-20 17:17:00,
2013-11-20 11:22:00,50.0,36.2,28.61,South,180,19.6,19.6,59,0.00,CLR,,0.00,WeatherDisplay:10.37,2013-11-20 17:22:00,
2013-11-20 11:27:00,50.0,36.7,28.60,South,180,17.3,17.3,60,0.00,CLR,,0.00,WeatherDisplay:10.37,2013-11-20 17:27:00,
2013-11-20 11:32:00,50.2,36.8,28.60,South,180,16.1,16.1,60,0.00,CLR,,0.00,WeatherDisplay:10.37,2013-11-20 17:32:00,
2013-11-20 11:37:00,50.4,37.0,28.60,South,180,17.3,17.3,60,0.00,CLR,,0.00,WeatherDisplay:10.37,2013-11-20 17:37:00,
2013-11-20 11:42:00,50.4,37.0,28.60,South,180,18.4,18.4,60,0.00,CLR,,0.00,WeatherDisplay:10.37,2013-11-20 17:42:00,
2013-11-20 11:47:00,50.9,37.9,28.60,South,180,12.7,12.7,61,0.00,CLR,,0.00,WeatherDisplay:10.37,2013-11-20 17:47:00,
2013-11-20 11:52:00,51.1,36.8,28.60,South,180,15.0,15.0,58,0.00,CLR,,0.00,WeatherDisplay:10.37,2013-11-20 17:52:00,
2013-11-20 11:57:00,51.1,36.4,28.60,South,180,13.8,13.8,57,0.00,CLR,,0.00,WeatherDisplay:10.37,2013-11-20 17:57:00,
2013-11-20 12:02:00,51.3,36.5,28.59,South,180,15.0,15.0,57,0.00,CLR,,0.00,WeatherDisplay:10.37,2013-11-20 18:02:00,
2013-11-20 12:07:00,51.3,36.5,28.59,South,180,15.0,15.0,57,0.00,CLR,,0.00,WeatherDisplay:10.37,2013-11-20 18:07:00,
2013-11-20 12:12:00,51.3,37.0,28.60,South,180,13.8,13.8,58,0.00,CLR,,0.00,WeatherDisplay:10.37,2013-11-20 18:12:00,
2013-11-20 12:17:00,51.4,36.7,28.59,South,180,15.0,15.0,57,0.00,CLR,,0.00,WeatherDisplay:10.37,2013-11-20 18:17:00,
2013-11-20 12:22:00,51.6,36.9,28.59,South,180,12.7,12.7,57,0.00,CLR,,0.00,WeatherDisplay:10.37,2013-11-20 18:22:00,
2013-11-20 12:27:00,51.8,37.0,28.59,South,180,12.7,12.7,57,0.00,CLR,,0.00,WeatherDisplay:10.37,2013-11-20 18:27:00,
2013-11-20 12:32:00,51.8,36.6,28.59,South,180,12.7,12.7,56,0.00,CLR,,0.00,WeatherDisplay:10.37,2013-11-20 18:32:00,
2013-11-20 12:37:00,51.8,37.0,28.58,South,180,12.7,12.7,57,0.00,CLR,,0.00,WeatherDisplay:10.37,2013-11-20 18:37:00,
2013-11-20 12:42:00,52.0,37.2,28.58,South,180,10.4,10.4,57,0.00,CLR,,0.00,WeatherDisplay:10.37,2013-11-20 18:42:00,
2013-11-20 12:47:00,52.2,37.4,28.58,South,180,10.4,10.4,57,0.00,CLR,,0.00,WeatherDisplay:10.37,2013-11-20 18:47:00,
2013-11-20 12:52:00,52.3,37.1,28.58,South,180,15.0,15.0,56,0.00,CLR,,0.00,WeatherDisplay:10.37,2013-11-20 18:52:00,
2013-11-20 12:57:00,52.7,37.0,28.58,South,180,12.7,12.7,55,0.00,CLR,,0.00,WeatherDisplay:10.37,2013-11-20 18:57:00,
2013-11-20 13:02:00,52.7,37.0,28.58,South,180,10.4,10.4,55,0.00,CLR,,0.00,WeatherDisplay:10.37,2013-11-20 19:02:00,
2013-11-20 13:07:00,52.9,37.6,28.58,South,180,10.7,10.7,56,0.00,CLR,,0.00,WeatherDisplay:10.37,2013-11-20 19:07:00,
2013-11-20 13:12:00,53.1,37.8,28.58,South,180,9.2,9.2,56,0.00,CLR,,0.00,WeatherDisplay:10.37,2013-11-20 19:12:00,
2013-11-20 13:17:00,53.1,37.3,28.58,South,180,9.2,9.2,55,0.00,CLR,,0.00,WeatherDisplay:10.37,2013-11-20 19:17:00,
2013-11-20 13:22:00,53.2,37.5,28.58,South,180,9.2,9.2,55,0.00,CLR,,0.00,WeatherDisplay:10.37,2013-11-20 19:22:00,
2013-11-20 13:27:00,53.1,37.8,28.58,SE,135,8.1,8.1,56,0.00,CLR,,0.00,WeatherDisplay:10.37,2013-11-20 19:27:00,
2013-11-20 13:32:00,53.1,37.3,28.58,SE,135,8.1,8.1,55,0.00,CLR,,0.00,WeatherDisplay:10.37,2013-11-20 19:32:00,
2013-11-20 13:37:00,53.1,37.8,28.58,SE,135,9.2,9.2,56,0.00,CLR,,0.00,WeatherDisplay:10.37,2013-11-20 19:37:00,
2013-11-20 13:42:00,53.1,37.8,28.57,SE,135,10.4,10.4,56,0.00,CLR,,0.00,WeatherDisplay:10.37,2013-11-20 19:42:00,
2013-11-20 13:47:00,53.1,38.2,28.57,SE,135,8.1,8.1,57,0.00,CLR,,0.00,WeatherDisplay:10.37,2013-11-20 19:47:00,
2013-11-20 13:52:00,53.2,37.5,28.57,SE,135,10.4,10.4,55,0.00,CLR,,0.00,WeatherDisplay:10.37,2013-11-20 19:52:00,
2013-11-20 13:57:00,53.4,37.6,28.57,SE,135,5.8,5.8,55,0.00,CLR,,0.00,WeatherDisplay:10.37,2013-11-20 19:57:00,
2013-11-20 14:02:00,53.8,38.0,28.58,SE,135,9.2,9.2,55,0.00,CLR,,0.00,WeatherDisplay:10.37,2013-11-20 20:02:00,
2013-11-20 14:07:00,53.8,38.0,28.58,SE,135,9.2,9.2,55,0.00,CLR,,0.00,WeatherDisplay:10.37,2013-11-20 20:07:00,
2013-11-20 14:12:00,54.1,38.3,28.58,South,180,8.1,8.1,55,0.00,CLR,,0.00,WeatherDisplay:10.37,2013-11-20 20:12:00,
2013-11-20 14:17:00,54.0,38.1,28.58,South,180,10.4,10.4,55,0.00,CLR,,0.00,WeatherDisplay:10.37,2013-11-20 20:17:00,
2013-11-20 14:22:00,53.8,38.0,28.58,SE,135,8.1,8.1,55,0.00,CLR,,0.00,WeatherDisplay:10.37,2013-11-20 20:22:00,
2013-11-20 14:27:00,54.0,38.1,28.57,SE,135,12.7,12.7,55,0.00,CLR,,0.00,WeatherDisplay:10.37,2013-11-20 20:27:00,
2013-11-20 14:32:00,54.0,38.1,28.57,SE,135,11.5,11.5,55,0.00,CLR,,0.00,WeatherDisplay:10.37,2013-11-20 20:32:00,
2013-11-20 14:37:00,54.3,37.5,28.58,SW,225,11.5,11.5,53,0.00,CLR,,0.00,WeatherDisplay:10.37,2013-11-20 20:37:00,
2013-11-20 14:42:00,54.3,37.5,28.58,South,180,12.7,12.7,53,0.00,CLR,,0.00,WeatherDisplay:10.37,2013-11-20 20:42:00,
2013-11-20 14:47:00,54.1,37.4,28.58,South,180,10.4,10.4,53,0.00,CLR,,0.00,WeatherDisplay:10.37,2013-11-20 20:47:00,
2013-11-20 14:52:00,54.0,37.7,28.58,South,180,12.7,12.7,54,0.00,CLR,,0.00,WeatherDisplay:10.37,2013-11-20 20:52:00,
2013-11-20 14:57:00,54.0,38.1,28.57,South,180,10.4,10.4,55,0.00,CLR,,0.00,WeatherDisplay:10.37,2013-11-20 20:57:00,
2013-11-20 15:02:00,54.0,37.7,28.58,South,180,10.4,10.4,54,0.00,CLR,,0.00,WeatherDisplay:10.37,2013-11-20 21:02:00,
2013-11-20 15:07:00,54.0,37.7,28.58,South,180,10.4,10.4,54,0.00,CLR,,0.00,WeatherDisplay:10.37,2013-11-20 21:07:00,
2013-11-20 15:12:00,53.8,38.9,28.57,South,180,10.4,10.4,57,0.00,CLR,,0.00,WeatherDisplay:10.37,2013-11-20 21:12:00,
2013-11-20 15:17:00,54.1,38.3,28.58,South,180,10.4,10.4,55,0.00,CLR,,0.00,WeatherDisplay:10.37,2013-11-20 21:17:00,
2013-11-20 15:22:00,54.1,38.3,28.57,SE,135,10.4,10.4,55,0.00,CLR,,0.00,WeatherDisplay:10.37,2013-11-20 21:22:00,
2013-11-20 15:27:00,55.0,38.7,28.57,South,180,10.4,10.4,54,0.00,CLR,,0.00,WeatherDisplay:10.37,2013-11-20 21:27:00,
2013-11-20 15:32:00,54.9,38.5,28.57,South,180,10.4,10.4,54,0.00,CLR,,0.00,WeatherDisplay:10.37,2013-11-20 21:32:00,
2013-11-20 15:37:00,54.5,37.7,28.58,South,180,10.4,10.4,53,0.00,CLR,,0.00,WeatherDisplay:10.37,2013-11-20 21:37:00,
2013-11-20 15:42:00,54.3,38.5,28.58,South,180,9.2,9.2,55,0.00,CLR,,0.00,WeatherDisplay:10.37,2013-11-20 21:42:00,
2013-11-20 15:47:00,54.1,38.3,28.58,South,180,6.9,6.9,55,0.00,CLR,,0.00,WeatherDisplay:10.37,2013-11-20 21:47:00,
2013-11-20 15:52:00,54.0,38.1,28.58,South,180,8.1,8.1,55,0.00,CLR,,0.00,WeatherDisplay:10.37,2013-11-20 21:52:00,
2013-11-20 15:57:00,53.8,38.4,28.58,South,180,6.9,6.9,56,0.00,CLR,,0.00,WeatherDisplay:10.37,2013-11-20 21:57:00,
2013-11-20 16:02:00,53.8,38.9,28.59,SE,135,4.6,4.6,57,0.00,CLR,,0.00,WeatherDisplay:10.37,2013-11-20 22:02:00,
2013-11-20 16:07:00,53.8,38.9,28.59,SE,135,4.6,4.6,57,0.00,CLR,,0.00,WeatherDisplay:10.37,2013-11-20 22:07:00,
2013-11-20 16:12:00,53.8,38.9,28.59,SE,135,10.4,10.4,57,0.00,CLR,,0.00,WeatherDisplay:10.37,2013-11-20 22:12:00,
2013-11-20 16:17:00,54.0,38.6,28.60,SE,135,11.5,11.5,56,0.00,CLR,,0.00,WeatherDisplay:10.37,2013-11-20 22:17:00,
2013-11-20 16:22:00,54.3,38.0,28.60,SE,135,10.4,10.4,54,0.00,CLR,,0.00,WeatherDisplay:10.37,2013-11-20 22:22:00,
2013-11-20 16:27:00,54.1,37.8,28.60,SE,135,10.4,10.4,54,0.00,CLR,,0.00,WeatherDisplay:10.37,2013-11-20 22:27:00,
2013-11-20 16:32:00,53.8,37.5,28.60,SE,135,10.4,10.4,54,0.00,CLR,,0.00,WeatherDisplay:10.37,2013-11-20 22:32:00,
2013-11-20 16:37:00,53.6,38.3,28.61,SE,135,6.9,6.9,56,0.00,CLR,,0.00,WeatherDisplay:10.37,2013-11-20 22:37:00,
2013-11-20 16:42:00,53.2,37.9,28.61,SE,135,8.1,8.1,56,0.00,CLR,,0.00,WeatherDisplay:10.37,2013-11-20 22:42:00,
2013-11-20 16:47:00,53.1,37.8,28.61,ESE,112,8.1,8.1,56,0.00,CLR,,0.00,WeatherDisplay:10.37,2013-11-20 22:47:00,
2013-11-20 16:52:00,52.7,37.4,28.61,SE,135,6.9,6.9,56,0.00,CLR,,0.00,WeatherDisplay:10.37,2013-11-20 22:52:00,
2013-11-20 16:57:00,52.2,37.4,28.61,SE,135,3.5,3.5,57,0.00,CLR,,0.00,WeatherDisplay:10.37,2013-11-20 22:57:00,
2013-11-20 17:02:00,52.0,37.2,28.61,SE,135,3.5,3.5,57,0.00,CLR,,0.00,WeatherDisplay:10.37,2013-11-20 23:02:00,
2013-11-20 17:07:00,52.0,37.2,28.62,SE,135,3.5,3.5,57,0.00,CLR,,0.00,WeatherDisplay:10.37,2013-11-20 23:07:00,
2013-11-20 17:12:00,51.1,36.8,28.62,SE,135,5.8,5.8,58,0.00,CLR,,0.00,WeatherDisplay:10.37,2013-11-20 23:12:00,
2013-11-20 17:17:00,50.2,36.4,28.63,South,180,4.6,4.6,59,0.00,CLR,,0.00,WeatherDisplay:10.37,2013-11-20 23:17:00,
2013-11-20 17:22:00,49.5,37.4,28.63,South,180,6.9,6.9,63,0.00,CLR,,0.00,WeatherDisplay:10.37,2013-11-20 23:22:00,
2013-11-20 17:27:00,48.7,37.1,28.64,SE,135,6.9,6.9,64,0.00,CLR,,0.00,WeatherDisplay:10.37,2013-11-20 23:27:00,
2013-11-20 17:32:00,48.2,37.0,28.64,SE,135,8.1,8.1,65,0.00,CLR,,0.00,WeatherDisplay:10.37,2013-11-20 23:32:00,
2013-11-20 17:37:00,48.0,37.2,28.64,South,180,5.8,5.8,66,0.00,CLR,,0.00,WeatherDisplay:10.37,2013-11-20 23:37:00,
2013-11-20 17:42:00,47.7,37.2,28.64,SE,135,4.6,4.6,67,0.00,CLR,,0.00,WeatherDisplay:10.37,2013-11-20 23:42:00,
2013-11-20 17:47:00,47.7,37.2,28.64,SE,135,5.8,5.8,67,0.00,CLR,,0.00,WeatherDisplay:10.37,2013-11-20 23:47:00,
2013-11-20 17:52:00,47.7,37.2,28.64,SE,135,3.5,3.5,67,0.00,CLR,,0.00,WeatherDisplay:10.37,2013-11-20 23:52:00,
2013-11-20 17:57:00,47.7,36.9,28.64,SE,135,5.8,5.8,66,0.00,CLR,,0.00,WeatherDisplay:10.37,2013-11-20 23:57:00,
2013-11-20 18:02:00,47.7,36.9,28.64,SE,135,4.6,4.6,66,0.00,CLR,,0.00,WeatherDisplay:10.37,2013-11-21 00:02:00,
2013-11-20 18:07:00,48.0,36.8,28.64,SE,135,4.6,4.6,65,0.00,CLR,,0.00,WeatherDisplay:10.37,2013-11-21 00:07:00,
2013-11-20 18:12:00,47.8,36.6,28.64,SE,135,3.5,3.5,65,0.00,CLR,,0.00,WeatherDisplay:10.37,2013-11-21 00:12:00,
2013-11-20 18:17:00,47.3,36.1,28.64,SE,135,3.5,3.5,65,0.00,CLR,,0.00,WeatherDisplay:10.37,2013-11-21 00:17:00,
2013-11-20 18:22:00,46.9,36.2,28.64,SE,135,2.3,0.0,66,0.00,CLR,,0.00,WeatherDisplay:10.37,2013-11-21 00:22:00,
2013-11-20 18:27:00,46.6,35.8,28.65,SE,135,2.3,2.3,66,0.00,CLR,,0.00,WeatherDisplay:10.37,2013-11-21 00:27:00,
2013-11-20 18:32:00,46.8,36.0,28.65,SE,135,3.5,3.5,66,0.00,CLR,,0.00,WeatherDisplay:10.37,2013-11-21 00:32:00,
2013-11-20 18:37:00,46.8,36.0,28.65,SE,135,0.0,0.0,66,0.00,CLR,,0.00,WeatherDisplay:10.37,2013-11-21 00:37:00,
2013-11-20 18:42:00,46.4,35.7,28.65,SE,135,0.0,0.0,66,0.00,CLR,,0.00,WeatherDisplay:10.37,2013-11-21 00:42:00,
2013-11-20 18:47:00,46.0,35.3,28.65,East,90,0.0,0.0,66,0.00,CLR,,0.00,WeatherDisplay:10.37,2013-11-21 00:47:00,
2013-11-20 18:52:00,45.9,35.1,28.65,NE,45,1.2,0.0,66,0.00,CLR,,0.00,WeatherDisplay:10.37,2013-11-21 00:52:00,
2013-11-20 18:57:00,45.3,34.6,28.66,North,0,2.3,2.3,66,0.00,CLR,,0.00,WeatherDisplay:10.37,2013-11-21 00:57:00,
2013-11-20 19:02:00,44.6,34.3,28.66,North,0,1.2,1.2,67,0.00,CLR,,0.00,WeatherDisplay:10.37,2013-11-21 01:02:00,
2013-11-20 19:07:00,44.6,34.3,28.66,North,0,1.2,1.2,67,0.00,CLR,,0.00,WeatherDisplay:10.37,2013-11-21 01:07:00,
2013-11-20 19:12:00,43.0,33.5,28.66,North,0,1.2,0.0,69,0.00,CLR,,0.00,WeatherDisplay:10.37,2013-11-21 01:12:00,
2013-11-20 19:17:00,42.1,33.0,28.67,North,0,1.2,1.2,70,0.00,CLR,,0.00,WeatherDisplay:10.37,2013-11-21 01:17:00,
2013-11-20 19:22:00,41.5,33.5,28.67,NE,45,3.5,3.5,73,0.00,CLR,,0.00,WeatherDisplay:10.37,2013-11-21 01:22:00,
2013-11-20 19:27:00,41.4,34.0,28.67,NE,45,3.5,3.5,75,0.00,CLR,,0.00,WeatherDisplay:10.37,2013-11-21 01:27:00,
2013-11-20 19:32:00,40.5,32.5,28.67,NE,45,3.5,3.5,73,0.00,CLR,,0.00,WeatherDisplay:10.37,2013-11-21 01:32:00,
2013-11-20 19:37:00,39.2,31.3,28.68,NE,45,0.0,0.0,73,0.00,CLR,,0.00,WeatherDisplay:10.37,2013-11-21 01:37:00,
2013-11-20 19:42:00,38.3,30.7,28.68,West,270,0.0,0.0,74,0.00,CLR,,0.00,WeatherDisplay:10.37,2013-11-21 01:42:00,
2013-11-20 19:47:00,37.6,30.0,28.68,SW,225,0.0,0.0,74,0.00,CLR,,0.00,WeatherDisplay:10.37,2013-11-21 01:47:00,
2013-11-20 19:52:00,37.6,30.7,28.69,NW,315,0.0,0.0,76,0.00,CLR,,0.00,WeatherDisplay:10.37,2013-11-21 01:52:00,
2013-11-20 19:57:00,37.6,30.7,28.69,West,270,0.0,0.0,76,0.00,CLR,,0.00,WeatherDisplay:10.37,2013-11-21 01:57:00,
2013-11-20 20:02:00,37.4,30.5,28.69,West,270,0.0,0.0,76,0.00,CLR,,0.00,WeatherDisplay:10.37,2013-11-21 02:02:00,
2013-11-20 20:07:00,36.5,30.3,28.70,NW,315,0.0,0.0,78,0.00,CLR,,0.00,WeatherDisplay:10.37,2013-11-21 02:07:00,
2013-11-20 20:12:00,36.3,30.7,28.70,NW,315,0.0,0.0,80,0.00,CLR,,0.00,WeatherDisplay:10.37,2013-11-21 02:12:00,
2013-11-20 20:17:00,36.0,30.1,28.70,North,0,0.0,0.0,79,0.00,CLR,,0.00,WeatherDisplay:10.37,2013-11-21 02:17:00,
2013-11-20 20:22:00,35.6,29.7,28.71,North,0,0.0,0.0,79,0.00,CLR,,0.00,WeatherDisplay:10.37,2013-11-21 02:22:00,
2013-11-20 20:27:00,35.4,29.9,28.71,North,0,0.0,0.0,80,0.00,CLR,,0.00,WeatherDisplay:10.37,2013-11-21 02:27:00,
2013-11-20 20:32:00,35.6,30.6,28.71,North,0,0.0,0.0,82,0.00,CLR,,0.00,WeatherDisplay:10.37,2013-11-21 02:32:00,
2013-11-20 20:37:00,35.2,30.0,28.71,North,0,0.0,0.0,81,0.00,CLR,,0.00,WeatherDisplay:10.37,2013-11-21 02:37:00,
2013-11-20 20:42:00,35.1,29.8,28.72,North,0,0.0,0.0,81,0.00,CLR,,0.00,WeatherDisplay:10.37,2013-11-21 02:42:00,
2013-11-20 20:47:00,34.9,29.9,28.72,North,0,0.0,0.0,82,0.00,CLR,,0.00,WeatherDisplay:10.37,2013-11-21 02:47:00,
2013-11-20 20:52:00,35.1,30.1,28.72,NE,45,0.0,0.0,82,0.00,CLR,,0.00,WeatherDisplay:10.37,2013-11-21 02:52:00,
2013-11-20 20:57:00,35.2,30.6,28.72,NE,45,0.0,0.0,83,0.00,CLR,,0.00,WeatherDisplay:10.37,2013-11-21 02:57:00,
2013-11-20 21:02:00,35.2,30.6,28.72,NE,45,0.0,0.0,83,0.00,CLR,,0.00,WeatherDisplay:10.37,2013-11-21 03:02:00,
2013-11-20 21:07:00,35.2,30.6,28.72,NE,45,0.0,0.0,83,0.00,CLR,,0.00,WeatherDisplay:10.37,2013-11-21 03:07:00,
2013-11-20 21:12:00,34.7,30.1,28.72,NE,45,0.0,0.0,83,0.00,CLR,,0.00,WeatherDisplay:10.37,2013-11-21 03:12:00,
2013-11-20 21:17:00,34.3,29.7,28.72,NE,45,0.0,0.0,83,0.00,CLR,,0.00,WeatherDisplay:10.37,2013-11-21 03:17:00,
2013-11-20 21:22:00,34.2,29.8,28.73,NE,45,0.0,0.0,84,0.00,CLR,,0.00,WeatherDisplay:10.37,2013-11-21 03:22:00,
2013-11-20 21:27:00,33.8,29.5,28.73,NE,45,0.0,0.0,84,0.00,CLR,,0.00,WeatherDisplay:10.37,2013-11-21 03:27:00,
2013-11-20 21:32:00,33.8,29.8,28.74,NE,45,0.0,0.0,85,0.00,CLR,,0.00,WeatherDisplay:10.37,2013-11-21 03:32:00,
2013-11-20 21:37:00,33.8,30.1,28.74,North,0,3.5,0.0,86,0.00,CLR,,0.00,WeatherDisplay:10.37,2013-11-21 03:37:00,
2013-11-20 21:42:00,34.0,30.5,28.75,North,0,0.0,0.0,87,0.00,CLR,,0.00,WeatherDisplay:10.37,2013-11-21 03:42:00,
2013-11-20 21:47:00,34.2,31.0,28.75,NW,315,0.0,0.0,88,0.00,CLR,,0.00,WeatherDisplay:10.37,2013-11-21 03:47:00,
2013-11-20 21:52:00,34.3,31.4,28.75,North,0,0.0,0.0,89,0.00,CLR,,0.00,WeatherDisplay:10.37,2013-11-21 03:52:00,
2013-11-20 21:57:00,34.0,30.5,28.75,North,0,0.0,0.0,87,0.00,CLR,,0.00,WeatherDisplay:10.37,2013-11-21 03:57:00,
2013-11-20 22:02:00,34.0,30.5,28.76,North,0,0.0,0.0,87,0.00,CLR,,0.00,WeatherDisplay:10.37,2013-11-21 04:02:00,
2013-11-20 22:07:00,34.0,30.5,28.76,North,0,0.0,0.0,87,0.00,CLR,,0.00,WeatherDisplay:10.37,2013-11-21 04:07:00,
2013-11-20 22:12:00,33.8,31.2,28.76,NW,315,2.3,2.3,90,0.00,CLR,,0.00,WeatherDisplay:10.37,2013-11-21 04:12:00,
2013-11-20 22:17:00,34.0,31.1,28.76,NW,315,2.3,2.3,89,0.00,CLR,,0.00,WeatherDisplay:10.37,2013-11-21 04:17:00,
2013-11-20 22:22:00,33.8,30.6,28.76,NW,315,3.5,0.0,88,0.00,CLR,,0.00,WeatherDisplay:10.37,2013-11-21 04:22:00,
2013-11-20 22:27:00,33.4,30.3,28.76,NW,315,1.2,0.0,88,0.00,CLR,,0.00,WeatherDisplay:10.37,2013-11-21 04:27:00,
2013-11-20 22:32:00,33.4,30.5,28.76,NW,315,1.2,1.2,89,0.00,CLR,,0.00,WeatherDisplay:10.37,2013-11-21 04:32:00,
2013-11-20 22:37:00,33.4,30.5,28.76,West,270,2.3,0.0,89,0.00,CLR,,0.00,WeatherDisplay:10.37,2013-11-21 04:37:00,
2013-11-20 22:42:00,33.6,31.0,28.76,West,270,3.5,0.0,90,0.00,CLR,,0.00,WeatherDisplay:10.37,2013-11-21 04:42:00,
2013-11-20 22:47:00,34.2,31.8,28.77,SW,225,2.3,0.0,91,0.00,CLR,,0.00,WeatherDisplay:10.37,2013-11-21 04:47:00,
2013-11-20 22:52:00,34.3,31.7,28.78,West,270,3.5,0.0,90,0.00,CLR,,0.00,WeatherDisplay:10.37,2013-11-21 04:52:00,
2013-11-20 22:57:00,34.5,31.9,28.78,SW,225,3.5,3.5,90,0.00,CLR,,0.00,WeatherDisplay:10.37,2013-11-21 04:57:00,
2013-11-20 23:01:00,34.3,31.4,28.78,North,0,1.2,0.0,89,0.00,CLR,,0.00,WeatherDisplay:10.37,2013-11-21 05:01:00,
2013-11-20 23:06:00,34.3,31.4,28.78,North,0,1.2,0.0,89,0.00,CLR,,0.00,WeatherDisplay:10.37,2013-11-21 05:06:00,
2013-11-20 23:11:00,33.8,30.9,28.79,NW,315,2.3,0.0,89,0.00,CLR,,0.00,WeatherDisplay:10.37,2013-11-21 05:11:00,
2013-11-20 23:16:00,33.4,30.5,28.79,NW,315,3.5,3.5,89,0.00,CLR,,0.00,WeatherDisplay:10.37,2013-11-21 05:16:00,
2013-11-20 23:21:00,33.3,30.6,28.79,NW,315,5.8,5.8,90,0.00,CLR,,0.00,WeatherDisplay:10.37,2013-11-21 05:21:00,
2013-11-20 23:26:00,32.9,30.6,28.80,NW,315,5.8,5.8,91,0.00,CLR,,0.00,WeatherDisplay:10.37,2013-11-21 05:26:00,
2013-11-20 23:31:00,32.7,30.7,28.80,NW,315,3.5,3.5,92,0.00,CLR,,0.00,WeatherDisplay:10.37,2013-11-21 05:31:00,
2013-11-20 23:36:00,32.7,30.7,28.80,West,270,5.8,5.8,92,0.00,CLR,,0.00,WeatherDisplay:10.37,2013-11-21 05:36:00,
2013-11-20 23:41:00,32.5,30.5,28.81,WNW,292,5.8,5.8,92,0.00,CLR,,0.00,WeatherDisplay:10.37,2013-11-21 05:41:00,
2013-11-20 23:46:00,32.4,30.3,28.81,NW,315,4.6,4.6,92,0.00,CLR,,0.00,WeatherDisplay:10.37,2013-11-21 05:46:00,
2013-11-20 23:51:00,32.4,30.3,28.82,NW,315,3.5,3.5,92,0.00,CLR,,0.00,WeatherDisplay:10.37,2013-11-21 05:51:00,
2013-11-20 23:56:00,32.2,30.1,28.82,NW,315,3.5,3.5,92,0.00,CLR,,0.00,WeatherDisplay:10.37,2013-11-21 05:56:00,
2013-11-20 23:57:00,32.0,29.9,28.82,NW,315,4.6,4.6,92,0.00,CLR,,0.00,WeatherDisplay:10.37,2013-11-21 05:57:00,